createdAt,value
2023-01-09T00:02:28.460Z,5.40
2023-01-09T00:05:23.096Z,5.80
2023-01-09T00:08:24.358Z,5.40
2023-01-09T00:11:27.235Z,5.90
2023-01-09T00:14:14.873Z,5.90
2023-01-09T00:17:11.034Z,5.20
2023-01-09T00:19:58.839Z,3.00
2023-01-09T00:22:50.113Z,5.30
2023-01-09T00:25:42.413Z,5.40
2023-01-09T00:28:33.513Z,5.20
2023-01-09T00:31:25.275Z,5.30
2023-01-09T00:34:19.568Z,5.60
2023-01-09T00:37:12.192Z,6.10
2023-01-09T00:40:29.181Z,5.20
2023-01-09T00:43:16.759Z,5.30
2023-01-09T00:46:06.134Z,5.30
2023-01-09T00:48:53.799Z,5.10
2023-01-09T00:51:43.825Z,5.40
2023-01-09T00:54:33.896Z,5.30
2023-01-09T00:57:23.592Z,5.60
2023-01-09T01:00:13.832Z,5.20
2023-01-09T01:03:01.759Z,5.20
2023-01-09T01:06:09.180Z,5.50
2023-01-09T01:09:04.453Z,5.40
2023-01-09T01:12:07.390Z,4.80
2023-01-09T01:19:10.632Z,5.30
2023-01-09T01:22:03.551Z,5.20
2023-01-09T01:24:59.258Z,6.10
2023-01-09T01:30:57.981Z,4.60
2023-01-09T01:33:45.875Z,5.10
2023-01-09T01:36:56.717Z,6.30
2023-01-09T01:39:45.844Z,5.50
2023-01-09T01:43:09.874Z,5.00
2023-01-09T01:45:58.103Z,4.80
2023-01-09T01:49:04.952Z,5.00
2023-01-09T01:52:00.001Z,5.20
2023-01-09T01:54:51.393Z,4.90
2023-01-09T01:57:46.372Z,6.20
2023-01-09T02:01:11.582Z,4.90
2023-01-09T02:04:22.702Z,7.20
2023-01-09T02:07:11.358Z,7.30
2023-01-09T02:10:16.405Z,4.70
2023-01-09T02:13:11.545Z,4.90
2023-01-09T02:16:11.916Z,4.90
2023-01-09T02:19:04.946Z,5.10
2023-01-09T02:22:01.627Z,7.00
2023-01-09T02:25:01.083Z,4.80
2023-01-09T02:28:09.602Z,4.90
2023-01-09T02:31:01.461Z,5.10
2023-01-09T02:33:55.806Z,5.60
2023-01-09T02:36:49.452Z,5.20
2023-01-09T02:39:39.697Z,5.30
2023-01-09T02:42:40.448Z,5.40
2023-01-09T02:45:31.345Z,6.70
2023-01-09T02:48:22.060Z,5.40
2023-01-09T02:51:17.664Z,5.50
2023-01-09T02:54:16.658Z,6.00
2023-01-09T02:57:26.913Z,5.50
2023-01-09T03:00:24.014Z,5.90
2023-01-09T03:03:18.557Z,5.70
2023-01-09T03:06:20.117Z,5.80
2023-01-09T03:09:10.044Z,5.90
2023-01-09T03:12:01.629Z,5.90
2023-01-09T03:15:01.664Z,5.90
2023-01-09T03:17:50.719Z,6.10
2023-01-09T03:20:40.138Z,6.00
2023-01-09T03:23:53.410Z,6.10
2023-01-09T03:26:49.397Z,6.20
2023-01-09T03:29:37.925Z,6.20
2023-01-09T03:32:28.167Z,6.20
2023-01-09T03:35:25.060Z,6.20
2023-01-09T03:38:13.005Z,5.90
2023-01-09T03:41:04.942Z,6.20
2023-01-09T03:43:53.238Z,6.10
2023-01-09T03:46:42.100Z,6.20
2023-01-09T03:49:34.981Z,6.20
2023-01-09T03:52:22.737Z,6.30
2023-01-09T03:55:10.358Z,6.30
2023-01-09T03:58:01.316Z,6.70
2023-01-09T04:00:51.102Z,6.40
2023-01-09T04:06:40.528Z,6.50
2023-01-09T04:09:31.315Z,6.60
2023-01-09T04:12:22.951Z,6.70
2023-01-09T04:15:12.605Z,6.60
2023-01-09T04:18:07.659Z,6.50
2023-01-09T04:20:55.608Z,6.60
2023-01-09T04:23:45.638Z,7.40
2023-01-09T04:26:39.084Z,6.70
2023-01-09T04:29:30.419Z,7.00
2023-01-09T04:32:20.505Z,6.90
2023-01-09T04:35:10.486Z,6.70
2023-01-09T04:38:03.073Z,6.70
2023-01-09T04:40:56.833Z,6.80
2023-01-09T04:43:45.326Z,7.20
2023-01-09T04:46:33.706Z,6.80
2023-01-09T04:49:23.061Z,6.80
2023-01-09T04:52:10.914Z,6.90
2023-01-09T04:54:59.220Z,6.90
2023-01-09T04:57:46.794Z,7.30
2023-01-09T05:00:37.475Z,7.20
2023-01-09T05:03:27.953Z,9.00
2023-01-09T05:06:17.607Z,7.00
2023-01-09T05:09:05.301Z,7.10
2023-01-09T05:11:59.200Z,8.30
2023-01-09T05:14:48.197Z,7.20
2023-01-09T05:17:36.264Z,7.10
2023-01-09T05:20:24.516Z,7.20
2023-01-09T05:23:15.791Z,7.30
2023-01-09T05:26:06.884Z,7.30
2023-01-09T05:28:54.387Z,7.20
2023-01-09T05:31:42.192Z,7.30
2023-01-09T05:34:30.579Z,7.30
2023-01-09T05:37:18.072Z,7.30
2023-01-09T05:40:08.507Z,7.30
2023-01-09T05:42:55.948Z,7.20
2023-01-09T05:45:44.951Z,7.00
2023-01-09T05:48:33.329Z,7.40
2023-01-09T05:51:21.064Z,7.30
2023-01-09T05:54:10.066Z,7.30
2023-01-09T05:57:01.902Z,7.50
2023-01-09T05:59:50.358Z,7.50
2023-01-09T06:02:40.391Z,9.50
2023-01-09T06:05:28.540Z,6.00
2023-01-09T06:08:16.194Z,7.20
2023-01-09T06:11:04.190Z,7.40
2023-01-09T06:13:53.634Z,7.40
2023-01-09T06:16:41.434Z,8.20
2023-01-09T06:19:29.130Z,7.50
2023-01-09T06:22:16.920Z,7.40
2023-01-09T06:25:05.968Z,9.10
2023-01-09T06:27:53.632Z,7.40
2023-01-09T06:30:42.666Z,7.50
2023-01-09T06:33:30.881Z,7.50
2023-01-09T06:36:18.177Z,7.50
2023-01-09T06:39:07.796Z,7.60
2023-01-09T06:41:56.031Z,7.60
2023-01-09T06:47:38.634Z,7.60
2023-01-09T06:50:27.237Z,7.60
2023-01-09T06:53:14.562Z,7.60
2023-01-09T06:56:02.903Z,7.60
2023-01-09T06:58:50.780Z,7.60
2023-01-09T07:01:40.145Z,7.60
2023-01-09T07:04:29.428Z,7.60
2023-01-09T07:07:18.551Z,7.60
2023-01-09T07:10:06.431Z,7.70
2023-01-09T07:12:53.980Z,7.70
2023-01-09T07:15:41.387Z,7.60
2023-01-09T07:18:28.924Z,7.70
2023-01-09T07:21:17.918Z,7.70
2023-01-09T07:24:05.986Z,7.70
2023-01-09T07:26:53.570Z,7.50
2023-01-09T07:29:41.159Z,7.40
2023-01-09T07:32:28.715Z,7.40
2023-01-09T07:35:16.684Z,7.40
2023-01-09T07:38:06.220Z,7.40
2023-01-09T07:40:53.760Z,7.30
2023-01-09T07:43:41.326Z,7.30
2023-01-09T07:46:29.125Z,6.90
2023-01-09T07:49:19.167Z,7.10
2023-01-09T07:52:06.887Z,7.40
2023-01-09T07:54:55.984Z,7.30
2023-01-09T07:57:43.983Z,7.30
2023-01-09T08:00:33.164Z,7.40
2023-01-09T08:03:20.410Z,7.30
2023-01-09T08:06:08.266Z,7.30
2023-01-09T08:08:56.195Z,7.30
2023-01-09T08:11:45.853Z,7.40
2023-01-09T08:14:33.602Z,6.30
2023-01-09T08:17:20.942Z,7.20
2023-01-09T08:20:08.713Z,7.30
2023-01-09T08:22:57.015Z,7.30
2023-01-09T08:25:46.603Z,7.20
2023-01-09T08:28:36.270Z,7.30
2023-01-09T08:31:24.872Z,7.30
2023-01-09T08:34:13.412Z,7.30
2023-01-09T08:37:01.206Z,7.30
2023-01-09T08:39:49.103Z,7.30
2023-01-09T08:42:54.713Z,7.40
2023-01-09T08:46:16.567Z,7.30
2023-01-09T08:49:03.945Z,7.30
2023-01-09T08:51:51.516Z,7.20
2023-01-09T08:54:40.073Z,7.30
2023-01-09T08:57:27.439Z,7.30
2023-01-09T09:00:16.056Z,7.30
2023-01-09T09:03:05.555Z,7.30
2023-01-09T09:05:53.219Z,7.30
2023-01-09T09:08:40.759Z,8.90
2023-01-09T09:11:29.375Z,7.30
2023-01-09T09:14:37.048Z,7.30
2023-01-09T09:17:24.723Z,7.30
2023-01-09T09:20:13.917Z,7.30
2023-01-09T09:23:02.026Z,7.30
2023-01-09T09:25:49.760Z,7.30
2023-01-09T09:28:38.017Z,7.30
2023-01-09T09:31:25.809Z,7.50
2023-01-09T09:34:13.809Z,7.40
2023-01-09T09:37:02.893Z,7.30
2023-01-09T09:39:51.031Z,7.40
2023-01-09T09:43:05.871Z,7.30
2023-01-09T09:45:59.131Z,7.30
2023-01-09T09:48:49.800Z,7.30
2023-01-09T09:51:44.634Z,7.30
2023-01-09T09:54:38.190Z,7.40
2023-01-09T09:57:37.967Z,7.40
2023-01-09T10:00:26.350Z,7.30
2023-01-09T10:03:23.251Z,7.30
2023-01-09T10:06:16.775Z,7.30
2023-01-09T10:09:07.587Z,7.10
2023-01-09T10:12:00.117Z,7.40
2023-01-09T10:14:48.138Z,7.30
2023-01-09T10:17:45.576Z,7.20
2023-01-09T10:23:27.182Z,7.20
2023-01-09T10:31:57.949Z,7.20
2023-01-09T10:34:54.687Z,7.20
2023-01-09T10:37:45.198Z,7.20
2023-01-09T10:40:35.146Z,7.60
2023-01-09T10:43:31.056Z,9.10
2023-01-09T10:46:22.030Z,7.10
2023-01-09T10:49:12.736Z,7.30
2023-01-09T10:52:07.023Z,7.50
2023-01-09T10:54:56.728Z,7.20
2023-01-09T10:57:45.132Z,7.30
2023-01-09T11:00:32.956Z,7.30
2023-01-09T11:03:25.455Z,9.90
2023-01-09T11:06:19.913Z,7.30
2023-01-09T11:09:09.123Z,7.50
2023-01-09T11:11:57.416Z,7.10
2023-01-09T11:14:44.768Z,7.60
2023-01-09T11:17:32.311Z,7.60
2023-01-09T11:20:21.448Z,7.50
2023-01-09T11:23:24.496Z,7.50
2023-01-09T11:26:24.705Z,7.40
2023-01-09T11:29:13.684Z,7.40
2023-01-09T11:32:02.008Z,7.50
2023-01-09T11:34:49.766Z,7.50
2023-01-09T11:37:37.084Z,7.40
2023-01-09T11:40:25.108Z,7.60
2023-01-09T11:43:15.782Z,7.40
2023-01-09T11:46:05.257Z,7.40
2023-01-09T11:49:03.320Z,7.40
2023-01-09T11:52:06.669Z,7.30
2023-01-09T11:54:57.049Z,7.30
2023-01-09T11:57:45.121Z,7.40
2023-01-09T12:00:39.642Z,7.40
2023-01-09T12:03:34.817Z,7.90
2023-01-09T12:06:28.713Z,7.80
2023-01-09T12:09:20.661Z,7.30
2023-01-09T12:12:13.340Z,7.30
2023-01-09T12:15:10.121Z,7.40
2023-01-09T12:18:10.656Z,7.40
2023-01-09T12:21:03.343Z,7.40
2023-01-09T12:23:57.934Z,7.70
2023-01-09T12:26:50.572Z,8.00
2023-01-09T12:29:51.078Z,8.20
2023-01-09T12:32:47.209Z,8.10
2023-01-09T12:35:40.703Z,8.00
2023-01-09T12:38:39.905Z,7.90
2023-01-09T12:46:18.177Z,8.30
2023-01-09T12:49:25.527Z,7.90
2023-01-09T12:52:23.480Z,7.60
2023-01-09T12:55:16.117Z,7.90
2023-01-09T12:58:09.288Z,7.60
2023-01-09T13:00:57.912Z,7.60
2023-01-09T13:03:49.661Z,7.70
2023-01-09T13:06:39.448Z,7.60
2023-01-09T13:09:41.659Z,7.90
2023-01-09T13:12:34.847Z,8.00
2023-01-09T13:15:34.243Z,8.00
2023-01-09T13:18:24.773Z,8.20
2023-01-09T13:21:14.112Z,8.20
2023-01-09T13:24:05.415Z,8.20
2023-01-09T13:26:57.565Z,8.70
2023-01-09T13:29:49.952Z,8.40
2023-01-09T13:32:45.534Z,8.30
2023-01-09T13:35:33.352Z,8.40
2023-01-09T13:38:23.071Z,8.40
2023-01-09T13:41:30.412Z,8.30
2023-01-09T13:44:25.082Z,8.30
2023-01-09T13:47:30.234Z,8.30
2023-01-09T13:50:27.043Z,8.30
2023-01-09T13:53:36.112Z,8.50
2023-01-09T13:56:24.138Z,8.40
2023-01-09T13:59:28.315Z,8.80
2023-01-09T14:02:31.201Z,8.90
2023-01-09T14:05:40.338Z,8.80
2023-01-09T14:08:29.011Z,8.60
2023-01-09T14:11:21.202Z,8.40
2023-01-09T14:14:24.637Z,8.30
2023-01-09T14:17:18.732Z,8.20
2023-01-09T14:20:08.495Z,8.10
2023-01-09T14:23:18.026Z,8.40
2023-01-09T14:26:09.367Z,8.00
2023-01-09T14:29:28.483Z,8.00
2023-01-09T14:32:36.593Z,8.00
2023-01-09T14:35:29.288Z,8.10
2023-01-09T14:38:35.829Z,7.90
2023-01-09T14:41:42.026Z,7.90
2023-01-09T14:44:30.367Z,9.70
2023-01-09T14:47:20.099Z,7.90
2023-01-09T14:50:17.308Z,7.80
2023-01-09T14:53:08.218Z,7.80
2023-01-09T14:55:58.192Z,7.60
2023-01-09T14:58:45.767Z,7.50
2023-01-09T15:01:34.712Z,7.50
2023-01-09T15:04:35.080Z,7.40
2023-01-09T15:07:24.174Z,7.90
2023-01-09T15:10:17.507Z,9.90
2023-01-09T15:13:07.911Z,7.30
2023-01-09T15:15:55.504Z,7.50
2023-01-09T15:18:44.054Z,7.50
2023-01-09T15:21:32.214Z,7.50
2023-01-09T15:24:23.079Z,7.40
2023-01-09T15:27:15.483Z,7.40
2023-01-09T15:30:15.927Z,7.50
2023-01-09T15:33:04.392Z,7.50
2023-01-09T15:35:52.656Z,7.70
2023-01-09T15:38:43.936Z,7.50
2023-01-09T15:41:49.108Z,7.50
2023-01-09T15:44:40.631Z,7.50
2023-01-09T15:47:29.429Z,7.40
2023-01-09T15:50:22.598Z,7.40
2023-01-09T15:53:13.915Z,7.60
2023-01-09T15:56:07.171Z,7.00
2023-01-09T15:58:56.247Z,7.50
2023-01-09T16:02:06.261Z,7.60
2023-01-09T16:04:56.363Z,7.60
2023-01-09T16:07:49.030Z,7.50
2023-01-09T16:10:40.565Z,7.50
2023-01-09T16:13:32.154Z,7.20
2023-01-09T16:16:28.998Z,7.10
2023-01-09T16:19:31.865Z,7.20
2023-01-09T16:22:22.399Z,6.70
2023-01-09T16:25:28.185Z,6.70
2023-01-09T16:28:21.380Z,6.80
2023-01-09T16:31:19.963Z,6.80
2023-01-09T16:34:10.933Z,6.80
2023-01-09T16:37:02.918Z,6.80
2023-01-09T16:40:21.924Z,6.80
2023-01-09T16:43:12.575Z,6.90
2023-01-09T16:46:04.183Z,6.90
2023-01-09T16:48:52.640Z,6.90
2023-01-09T16:51:39.924Z,7.00
2023-01-09T16:54:29.080Z,8.60
2023-01-09T16:57:20.244Z,6.90
2023-01-09T17:00:08.858Z,6.90
2023-01-09T17:03:00.853Z,6.80
2023-01-09T17:05:50.488Z,6.80
2023-01-09T17:08:39.160Z,7.20
2023-01-09T17:12:05.601Z,7.60
2023-01-09T17:14:53.087Z,6.90
2023-01-09T17:17:40.776Z,7.40
2023-01-09T17:20:31.524Z,6.80
2023-01-09T17:23:20.541Z,6.80
2023-01-09T17:26:25.558Z,6.70
2023-01-09T17:29:14.630Z,6.70
2023-01-09T17:32:02.177Z,7.10
2023-01-09T17:34:50.829Z,6.60
2023-01-09T17:37:41.475Z,6.50
2023-01-09T17:40:42.256Z,6.40
2023-01-09T17:43:32.242Z,6.30
2023-01-09T17:46:25.922Z,6.20
2023-01-09T17:49:19.195Z,6.20
2023-01-09T17:52:07.260Z,5.90
2023-01-09T17:54:54.735Z,5.80
2023-01-09T17:57:43.301Z,5.80
2023-01-09T18:00:36.977Z,5.40
2023-01-09T18:03:31.147Z,5.30
2023-01-09T18:06:21.249Z,5.20
2023-01-09T18:09:09.003Z,4.90
2023-01-09T18:11:56.598Z,4.90
2023-01-09T18:14:44.998Z,5.20
2023-01-09T18:17:33.086Z,7.10
2023-01-09T18:20:22.175Z,5.30
2023-01-09T18:23:09.966Z,5.30
2023-01-09T18:25:57.575Z,5.40
2023-01-09T18:28:45.560Z,7.50
2023-01-09T18:31:33.566Z,5.50
2023-01-09T18:34:23.711Z,5.50
2023-01-09T18:37:13.674Z,5.70
2023-01-09T18:40:05.198Z,5.70
2023-01-09T18:42:53.019Z,5.80
2023-01-09T18:45:42.897Z,5.80
2023-01-09T18:48:30.780Z,6.00
2023-01-09T18:51:18.272Z,6.00
2023-01-09T18:54:08.305Z,5.90
2023-01-09T18:56:55.446Z,5.80
2023-01-09T18:59:42.921Z,5.80
2023-01-09T19:02:32.747Z,5.80
2023-01-09T19:05:23.451Z,5.80
2023-01-09T19:08:14.218Z,5.80
2023-01-09T19:11:03.680Z,5.70
2023-01-09T19:13:51.764Z,5.70
2023-01-09T19:16:39.348Z,5.60
2023-01-09T19:19:27.335Z,5.60
2023-01-09T19:22:15.511Z,5.60
2023-01-09T19:25:03.601Z,5.50
2023-01-09T19:27:56.285Z,5.50
2023-01-09T19:30:43.751Z,5.60
2023-01-09T19:33:31.856Z,5.30
2023-01-09T19:36:23.036Z,6.30
2023-01-09T19:39:10.548Z,5.10
2023-01-09T19:41:57.825Z,5.10
2023-01-09T19:44:47.431Z,5.10
2023-01-09T19:47:36.231Z,5.10
2023-01-09T19:50:23.728Z,5.00
2023-01-09T19:53:11.966Z,5.10
2023-01-09T19:56:13.369Z,5.10
2023-01-09T19:59:01.943Z,5.00
2023-01-09T20:01:51.049Z,5.00
2023-01-09T20:04:38.800Z,5.00
2023-01-09T20:07:26.522Z,5.00
2023-01-09T20:10:17.796Z,5.20
2023-01-09T20:13:05.894Z,5.80
2023-01-09T20:15:53.824Z,5.60
2023-01-09T20:18:47.799Z,5.70
2023-01-09T20:21:37.032Z,5.80
2023-01-09T20:24:24.854Z,6.10
2023-01-09T20:27:12.694Z,5.60
2023-01-09T20:30:01.069Z,6.00
2023-01-09T20:32:49.494Z,7.30
2023-01-09T20:35:38.227Z,5.30
2023-01-09T20:38:25.972Z,5.60
2023-01-09T20:41:22.907Z,5.50
2023-01-09T20:44:13.178Z,5.30
2023-01-09T20:47:02.509Z,5.20
2023-01-09T20:49:50.482Z,5.00
2023-01-09T20:52:40.755Z,5.00
2023-01-09T20:55:28.286Z,4.80
2023-01-09T20:58:16.295Z,4.60
2023-01-09T21:01:06.586Z,4.60
2023-01-09T21:03:54.746Z,4.40
2023-01-09T21:06:42.710Z,4.40
2023-01-09T21:09:31.473Z,4.30
2023-01-09T21:12:35.827Z,4.20
2023-01-09T21:15:24.704Z,4.00
2023-01-09T21:18:15.797Z,5.20
2023-01-09T21:21:05.786Z,4.00
2023-01-09T21:23:54.814Z,5.80
2023-01-09T21:26:44.352Z,4.00
2023-01-09T21:29:32.430Z,3.90
2023-01-09T21:32:19.923Z,3.80
2023-01-09T21:35:07.756Z,3.70
2023-01-09T21:37:55.194Z,3.80
2023-01-09T21:40:43.825Z,3.90
2023-01-09T21:43:50.311Z,3.90
2023-01-09T21:46:52.945Z,3.90
2023-01-09T21:49:41.346Z,3.90
2023-01-09T21:52:29.366Z,3.80
2023-01-09T21:55:16.914Z,3.80
2023-01-09T21:58:04.561Z,3.90
2023-01-09T22:00:57.663Z,3.90
2023-01-09T22:03:45.152Z,3.90
2023-01-09T22:06:33.038Z,3.80
2023-01-09T22:09:21.385Z,3.80
2023-01-09T22:12:10.499Z,3.80
2023-01-09T22:14:58.021Z,3.80
2023-01-09T22:17:47.017Z,3.70
2023-01-09T22:20:34.575Z,3.60
2023-01-09T22:23:21.868Z,3.60
2023-01-09T22:26:13.320Z,3.70
2023-01-09T22:29:01.403Z,3.60
2023-01-09T22:31:49.785Z,3.60
2023-01-09T22:34:38.587Z,3.80
2023-01-09T22:37:25.722Z,5.10
2023-01-09T22:40:15.507Z,2.80
2023-01-09T22:43:03.535Z,4.10
2023-01-09T22:45:51.455Z,4.20
2023-01-09T22:48:39.332Z,4.20
2023-01-09T22:51:29.022Z,4.20
2023-01-09T22:54:16.500Z,4.10
2023-01-09T22:57:04.636Z,4.20
2023-01-09T22:59:52.199Z,3.20
2023-01-09T23:02:40.719Z,2.60
2023-01-09T23:05:28.999Z,4.20
2023-01-09T23:08:18.130Z,4.20
2023-01-09T23:11:06.927Z,4.20
2023-01-09T23:13:54.083Z,4.20
2023-01-09T23:16:43.768Z,4.20
2023-01-09T23:19:33.765Z,4.10
2023-01-09T23:22:23.092Z,4.10
2023-01-09T23:25:15.726Z,4.10
2023-01-09T23:28:03.763Z,2.30
2023-01-09T23:30:51.348Z,4.20
2023-01-09T23:33:39.349Z,4.30
2023-01-09T23:36:27.612Z,4.30
2023-01-09T23:39:15.045Z,4.40
2023-01-09T23:42:21.535Z,4.40
2023-01-09T23:45:12.772Z,4.50
2023-01-09T23:48:00.876Z,4.50
2023-01-09T23:50:50.204Z,4.50
2023-01-09T23:53:37.579Z,4.50
2023-01-09T23:56:30.778Z,4.40
2023-01-09T23:59:19.838Z,4.40
